sensor_id;sensor_type;location;lat;lon;timestamp;pressure;altitude;pressure_sealevel;temperature;humidity
60258;BME280;46115;44.484;11.314;2023-12-20T00:03:01;100411.34;;;6.11;75.73
60258;BME280;46115;44.484;11.314;2023-12-20T00:07:03;100400.50;;;6.22;75.18
60258;BME280;46115;44.484;11.314;2023-12-20T00:11:07;100402.19;;;6.24;74.49
60258;BME280;46115;44.484;11.314;2023-12-20T00:15:09;100397.56;;;6.57;73.53
60258;BME280;46115;44.484;11.314;2023-12-20T00:19:11;100381.97;;;6.53;72.57
60258;BME280;46115;44.484;11.314;2023-12-20T00:23:13;100377.59;;;6.53;73.11
60258;BME280;46115;44.484;11.314;2023-12-20T00:27:16;100361.78;;;6.80;72.63
60258;BME280;46115;44.484;11.314;2023-12-20T00:31:19;100354.94;;;6.76;72.43
60258;BME280;46115;44.484;11.314;2023-12-20T00:35:21;100355.22;;;6.68;72.74
60258;BME280;46115;44.484;11.314;2023-12-20T00:39:23;100357.59;;;6.49;73.03
60258;BME280;46115;44.484;11.314;2023-12-20T00:43:26;100351.44;;;6.50;73.20
60258;BME280;46115;44.484;11.314;2023-12-20T00:47:28;100347.19;;;6.46;73.31
60258;BME280;46115;44.484;11.314;2023-12-20T00:51:31;100333.94;;;5.98;75.01
60258;BME280;46115;44.484;11.314;2023-12-20T00:55:33;100330.59;;;5.93;74.86
60258;BME280;46115;44.484;11.314;2023-12-20T00:59:37;100331.56;;;5.89;75.62
60258;BME280;46115;44.484;11.314;2023-12-20T01:03:39;100329.88;;;5.86;75.23
60258;BME280;46115;44.484;11.314;2023-12-20T01:07:41;100324.56;;;5.91;75.43
60258;BME280;46115;44.484;11.314;2023-12-20T01:11:43;100315.91;;;5.86;74.94
60258;BME280;46115;44.484;11.314;2023-12-20T01:15:48;100299.31;;;5.85;75.24
60258;BME280;46115;44.484;11.314;2023-12-20T01:19:50;100297.50;;;5.87;75.43
60258;BME280;46115;44.484;11.314;2023-12-20T01:23:52;100293.03;;;5.92;75.18
60258;BME280;46115;44.484;11.314;2023-12-20T01:27:54;100290.63;;;6.11;73.82
60258;BME280;46115;44.484;11.314;2023-12-20T01:31:58;100286.25;;;6.12;73.75
60258;BME280;46115;44.484;11.314;2023-12-20T01:36:00;100277.72;;;6.05;73.66
60258;BME280;46115;44.484;11.314;2023-12-20T01:40:02;100278.31;;;6.13;73.90
60258;BME280;46115;44.484;11.314;2023-12-20T01:44:04;100270.03;;;6.25;73.38
60258;BME280;46115;44.484;11.314;2023-12-20T01:48:08;100265.22;;;6.38;73.13
60258;BME280;46115;44.484;11.314;2023-12-20T01:52:11;100249.75;;;6.04;73.93
60258;BME280;46115;44.484;11.314;2023-12-20T01:56:14;100246.00;;;6.11;73.42
60258;BME280;46115;44.484;11.314;2023-12-20T02:00:17;100220.31;;;6.21;73.49
60258;BME280;46115;44.484;11.314;2023-12-20T02:04:23;100216.19;;;5.87;74.64
60258;BME280;46115;44.484;11.314;2023-12-20T02:08:25;100208.78;;;5.74;74.35
60258;BME280;46115;44.484;11.314;2023-12-20T02:12:27;100205.47;;;5.69;74.90
60258;BME280;46115;44.484;11.314;2023-12-20T02:16:30;100197.91;;;5.59;74.74
60258;BME280;46115;44.484;11.314;2023-12-20T02:20:33;100193.69;;;5.80;74.18
60258;BME280;46115;44.484;11.314;2023-12-20T02:24:37;100191.38;;;5.71;74.26
60258;BME280;46115;44.484;11.314;2023-12-20T02:28:39;100182.56;;;5.74;74.47
60258;BME280;46115;44.484;11.314;2023-12-20T02:32:41;100180.28;;;5.89;73.72
60258;BME280;46115;44.484;11.314;2023-12-20T02:36:43;100172.59;;;5.83;73.74
60258;BME280;46115;44.484;11.314;2023-12-20T02:40:47;100166.28;;;5.89;73.83
60258;BME280;46115;44.484;11.314;2023-12-20T02:44:49;100165.53;;;6.12;72.50
60258;BME280;46115;44.484;11.314;2023-12-20T02:48:51;100166.69;;;6.28;72.38
60258;BME280;46115;44.484;11.314;2023-12-20T02:52:53;100156.94;;;6.55;70.36
60258;BME280;46115;44.484;11.314;2023-12-20T02:56:56;100168.41;;;6.52;70.87
60258;BME280;46115;44.484;11.314;2023-12-20T03:00:58;100166.03;;;6.70;69.50
60258;BME280;46115;44.484;11.314;2023-12-20T03:05:01;100168.81;;;6.65;70.73
60258;BME280;46115;44.484;11.314;2023-12-20T03:09:03;100168.88;;;6.64;71.14
60258;BME280;46115;44.484;11.314;2023-12-20T03:13:07;100175.72;;;6.44;71.21
60258;BME280;46115;44.484;11.314;2023-12-20T03:17:09;100180.97;;;6.44;70.63
60258;BME280;46115;44.484;11.314;2023-12-20T03:21:11;100177.66;;;6.39;70.77
60258;BME280;46115;44.484;11.314;2023-12-20T03:25:14;100184.19;;;6.76;69.74
60258;BME280;46115;44.484;11.314;2023-12-20T03:29:17;100190.09;;;6.57;70.05
60258;BME280;46115;44.484;11.314;2023-12-20T03:33:19;100191.53;;;6.89;70.09
60258;BME280;46115;44.484;11.314;2023-12-20T03:37:21;100185.88;;;6.53;70.92
60258;BME280;46115;44.484;11.314;2023-12-20T03:41:24;100188.63;;;7.19;68.50
60258;BME280;46115;44.484;11.314;2023-12-20T03:45:27;100195.97;;;7.11;68.61
60258;BME280;46115;44.484;11.314;2023-12-20T03:49:29;100195.75;;;6.47;70.64
60258;BME280;46115;44.484;11.314;2023-12-20T03:53:31;100184.53;;;5.67;73.86
60258;BME280;46115;44.484;11.314;2023-12-20T03:57:37;100182.00;;;5.64;72.78
60258;BME280;46115;44.484;11.314;2023-12-20T04:01:44;100173.34;;;5.62;73.11
60258;BME280;46115;44.484;11.314;2023-12-20T04:05:46;100150.34;;;5.70;72.97
60258;BME280;46115;44.484;11.314;2023-12-20T04:09:48;100146.41;;;5.82;72.77
60258;BME280;46115;44.484;11.314;2023-12-20T04:13:50;100134.09;;;5.84;71.92
60258;BME280;46115;44.484;11.314;2023-12-20T04:17:54;100140.84;;;5.92;71.39
60258;BME280;46115;44.484;11.314;2023-12-20T04:21:56;100138.88;;;6.22;71.38
60258;BME280;46115;44.484;11.314;2023-12-20T04:25:58;100132.69;;;6.25;70.89
60258;BME280;46115;44.484;11.314;2023-12-20T04:30:00;100128.78;;;6.12;70.49
60258;BME280;46115;44.484;11.314;2023-12-20T04:34:04;100128.44;;;6.21;70.45
60258;BME280;46115;44.484;11.314;2023-12-20T04:38:06;100124.53;;;6.33;69.58
60258;BME280;46115;44.484;11.314;2023-12-20T04:42:08;100124.56;;;6.54;69.06
60258;BME280;46115;44.484;11.314;2023-12-20T04:46:10;100113.06;;;6.35;70.43
60258;BME280;46115;44.484;11.314;2023-12-20T04:50:14;100097.97;;;5.93;71.60
60258;BME280;46115;44.484;11.314;2023-12-20T04:54:16;100077.91;;;5.92;70.82
60258;BME280;46115;44.484;11.314;2023-12-20T04:58:18;100078.97;;;5.85;71.34
60258;BME280;46115;44.484;11.314;2023-12-20T05:02:20;100070.06;;;5.66;72.57
60258;BME280;46115;44.484;11.314;2023-12-20T05:06:24;100056.97;;;5.40;73.31
60258;BME280;46115;44.484;11.314;2023-12-20T05:10:26;100036.94;;;5.63;72.48
60258;BME280;46115;44.484;11.314;2023-12-20T05:14:28;100034.31;;;5.63;72.93
60258;BME280;46115;44.484;11.314;2023-12-20T05:18:31;100034.88;;;5.72;72.22
60258;BME280;46115;44.484;11.314;2023-12-20T05:22:35;100032.31;;;6.18;70.55
60258;BME280;46115;44.484;11.314;2023-12-20T05:26:37;100043.63;;;6.66;69.17
60258;BME280;46115;44.484;11.314;2023-12-20T05:30:39;100041.09;;;6.17;71.96
60258;BME280;46115;44.484;11.314;2023-12-20T05:34:41;100040.28;;;6.39;69.82
60258;BME280;46115;44.484;11.314;2023-12-20T05:38:45;100051.34;;;6.23;71.33
60258;BME280;46115;44.484;11.314;2023-12-20T05:42:47;100058.97;;;6.31;71.22
60258;BME280;46115;44.484;11.314;2023-12-20T05:46:49;100067.59;;;5.61;71.55
60258;BME280;46115;44.484;11.314;2023-12-20T05:50:51;100064.75;;;6.16;70.83
60258;BME280;46115;44.484;11.314;2023-12-20T05:54:55;100061.94;;;5.99;72.08
60258;BME280;46115;44.484;11.314;2023-12-20T05:58:58;100076.78;;;6.68;69.67
60258;BME280;46115;44.484;11.314;2023-12-20T06:03:00;100074.13;;;6.23;71.39
60258;BME280;46115;44.484;11.314;2023-12-20T06:07:02;100084.25;;;6.34;70.97
60258;BME280;46115;44.484;11.314;2023-12-20T06:11:06;100085.03;;;6.36;70.74
60258;BME280;46115;44.484;11.314;2023-12-20T06:15:08;100091.44;;;6.29;71.23
60258;BME280;46115;44.484;11.314;2023-12-20T06:19:10;100091.94;;;6.38;70.29
60258;BME280;46115;44.484;11.314;2023-12-20T06:23:12;100087.25;;;6.46;70.34
60258;BME280;46115;44.484;11.314;2023-12-20T06:27:16;100085.84;;;5.89;71.92
60258;BME280;46115;44.484;11.314;2023-12-20T06:31:18;100077.09;;;5.90;72.68
60258;BME280;46115;44.484;11.314;2023-12-20T06:35:20;100068.25;;;5.93;72.14
60258;BME280;46115;44.484;11.314;2023-12-20T06:39:22;100064.25;;;6.06;71.76
60258;BME280;46115;44.484;11.314;2023-12-20T06:43:25;100070.13;;;6.36;71.25
60258;BME280;46115;44.484;11.314;2023-12-20T06:47:27;100082.91;;;5.99;72.13
60258;BME280;46115;44.484;11.314;2023-12-20T06:51:29;100085.59;;;5.97;72.69
60258;BME280;46115;44.484;11.314;2023-12-20T06:55:32;100087.38;;;5.19;74.55
60258;BME280;46115;44.484;11.314;2023-12-20T06:59:39;100069.25;;;5.39;74.92
60258;BME280;46115;44.484;11.314;2023-12-20T07:03:41;100072.91;;;5.83;73.61
60258;BME280;46115;44.484;11.314;2023-12-20T07:07:43;100061.34;;;5.89;73.00
60258;BME280;46115;44.484;11.314;2023-12-20T07:11:45;100045.22;;;5.26;75.87
60258;BME280;46115;44.484;11.314;2023-12-20T07:15:49;100060.25;;;6.19;71.69
60258;BME280;46115;44.484;11.314;2023-12-20T07:19:51;100059.91;;;5.80;72.78
60258;BME280;46115;44.484;11.314;2023-12-20T07:23:53;100067.47;;;5.89;72.45
60258;BME280;46115;44.484;11.314;2023-12-20T07:27:55;100059.56;;;6.38;71.56
60258;BME280;46115;44.484;11.314;2023-12-20T07:31:58;100053.69;;;6.76;69.32
60258;BME280;46115;44.484;11.314;2023-12-20T07:36:00;100064.69;;;7.28;68.58
60258;BME280;46115;44.484;11.314;2023-12-20T07:40:03;100049.72;;;7.30;68.65
60258;BME280;46115;44.484;11.314;2023-12-20T07:44:05;100050.13;;;6.77;70.53
60258;BME280;46115;44.484;11.314;2023-12-20T07:48:08;100042.91;;;7.04;68.27
60258;BME280;46115;44.484;11.314;2023-12-20T07:52:11;100048.00;;;6.87;69.72
60258;BME280;46115;44.484;11.314;2023-12-20T07:56:13;100046.63;;;7.61;67.36
60258;BME280;46115;44.484;11.314;2023-12-20T08:00:16;100046.13;;;7.11;68.29
60258;BME280;46115;44.484;11.314;2023-12-20T08:04:19;100064.84;;;7.66;67.12
60258;BME280;46115;44.484;11.314;2023-12-20T08:08:22;100085.22;;;8.40;65.43
60258;BME280;46115;44.484;11.314;2023-12-20T08:12:24;100090.75;;;8.53;67.09
60258;BME280;46115;44.484;11.314;2023-12-20T08:16:28;100098.88;;;8.09;67.01
60258;BME280;46115;44.484;11.314;2023-12-20T08:20:31;100117.25;;;8.11;66.44
60258;BME280;46115;44.484;11.314;2023-12-20T08:24:34;100116.44;;;7.48;68.93
60258;BME280;46115;44.484;11.314;2023-12-20T08:28:36;100121.22;;;7.80;67.82
60258;BME280;46115;44.484;11.314;2023-12-20T08:32:38;100119.47;;;8.20;66.40
60258;BME280;46115;44.484;11.314;2023-12-20T08:36:42;100129.81;;;7.84;67.68
60258;BME280;46115;44.484;11.314;2023-12-20T08:40:44;100126.88;;;8.31;65.40
60258;BME280;46115;44.484;11.314;2023-12-20T08:44:46;100140.53;;;8.40;65.27
60258;BME280;46115;44.484;11.314;2023-12-20T08:48:48;100145.06;;;7.56;68.26
60258;BME280;46115;44.484;11.314;2023-12-20T08:52:52;100142.91;;;8.06;66.52
60258;BME280;46115;44.484;11.314;2023-12-20T08:56:54;100151.91;;;8.21;65.75
60258;BME280;46115;44.484;11.314;2023-12-20T09:00:56;100147.94;;;7.49;67.47
60258;BME280;46115;44.484;11.314;2023-12-20T09:04:58;100143.13;;;7.81;68.25
60258;BME280;46115;44.484;11.314;2023-12-20T09:09:02;100140.88;;;7.72;70.43
60258;BME280;46115;44.484;11.314;2023-12-20T09:13:04;100133.69;;;8.16;70.20
60258;BME280;46115;44.484;11.314;2023-12-20T09:17:06;100123.44;;;8.10;68.65
60258;BME280;46115;44.484;11.314;2023-12-20T09:21:09;100122.00;;;7.82;69.26
60258;BME280;46115;44.484;11.314;2023-12-20T09:25:13;100119.59;;;7.97;69.70
60258;BME280;46115;44.484;11.314;2023-12-20T09:29:16;100120.59;;;8.35;68.12
60258;BME280;46115;44.484;11.314;2023-12-20T09:33:19;100120.16;;;8.63;67.23
60258;BME280;46115;44.484;11.314;2023-12-20T09:37:22;100121.63;;;8.70;66.69
60258;BME280;46115;44.484;11.314;2023-12-20T09:41:25;100116.69;;;8.43;67.43
60258;BME280;46115;44.484;11.314;2023-12-20T09:45:28;100118.84;;;8.73;66.32
60258;BME280;46115;44.484;11.314;2023-12-20T09:49:32;100112.16;;;9.55;65.16
60258;BME280;46115;44.484;11.314;2023-12-20T09:53:34;100124.06;;;9.81;63.46
60258;BME280;46115;44.484;11.314;2023-12-20T09:57:40;100111.88;;;9.79;64.45
60258;BME280;46115;44.484;11.314;2023-12-20T10:01:43;100111.22;;;9.91;64.41
60258;BME280;46115;44.484;11.314;2023-12-20T10:05:45;100108.41;;;10.11;63.25
60258;BME280;46115;44.484;11.314;2023-12-20T10:09:51;100101.34;;;10.12;63.91
60258;BME280;46115;44.484;11.314;2023-12-20T10:14:00;100091.84;;;10.25;63.13
60258;BME280;46115;44.484;11.314;2023-12-20T10:18:03;100080.13;;;10.13;62.86
60258;BME280;46115;44.484;11.314;2023-12-20T10:22:05;100074.38;;;10.22;64.23
60258;BME280;46115;44.484;11.314;2023-12-20T10:26:07;100077.38;;;10.32;62.55
60258;BME280;46115;44.484;11.314;2023-12-20T10:30:12;100057.91;;;10.17;60.99
60258;BME280;46115;44.484;11.314;2023-12-20T10:34:14;100043.78;;;10.01;61.13
60258;BME280;46115;44.484;11.314;2023-12-20T10:38:17;100036.59;;;9.87;62.53
60258;BME280;46115;44.484;11.314;2023-12-20T10:42:19;100025.09;;;9.55;62.77
60258;BME280;46115;44.484;11.314;2023-12-20T10:46:24;100022.53;;;9.54;62.09
60258;BME280;46115;44.484;11.314;2023-12-20T10:50:27;100004.91;;;9.72;62.45
60258;BME280;46115;44.484;11.314;2023-12-20T10:54:30;100005.28;;;9.64;62.39
60258;BME280;46115;44.484;11.314;2023-12-20T10:58:33;99996.81;;;9.75;62.65
60258;BME280;46115;44.484;11.314;2023-12-20T11:02:38;100003.66;;;9.61;63.44
60258;BME280;46115;44.484;11.314;2023-12-20T11:06:43;100010.47;;;9.65;63.66
60258;BME280;46115;44.484;11.314;2023-12-20T11:10:48;99997.16;;;9.51;62.72
60258;BME280;46115;44.484;11.314;2023-12-20T11:14:53;99996.28;;;10.17;60.92
60258;BME280;46115;44.484;11.314;2023-12-20T11:18:58;99978.44;;;9.89;62.63
60258;BME280;46115;44.484;11.314;2023-12-20T11:23:06;99971.00;;;10.28;60.98
60258;BME280;46115;44.484;11.314;2023-12-20T11:27:08;99972.81;;;10.44;60.76
60258;BME280;46115;44.484;11.314;2023-12-20T11:31:12;99965.63;;;10.14;61.77
60258;BME280;46115;44.484;11.314;2023-12-20T11:35:20;99968.59;;;10.71;60.59
60258;BME280;46115;44.484;11.314;2023-12-20T11:39:25;99967.81;;;11.15;60.26
60258;BME280;46115;44.484;11.314;2023-12-20T11:43:30;99974.06;;;11.28;58.97
60258;BME280;46115;44.484;11.314;2023-12-20T11:47:33;99974.16;;;11.27;58.46
60258;BME280;46115;44.484;11.314;2023-12-20T11:51:37;99969.81;;;11.40;59.18
60258;BME280;46115;44.484;11.314;2023-12-20T11:55:42;99973.78;;;11.33;58.66
60258;BME280;46115;44.484;11.314;2023-12-20T11:59:44;99958.38;;;11.25;58.87
60258;BME280;46115;44.484;11.314;2023-12-20T12:03:46;99942.59;;;10.79;60.74
60258;BME280;46115;44.484;11.314;2023-12-20T12:07:49;99932.13;;;11.36;58.29
60258;BME280;46115;44.484;11.314;2023-12-20T12:11:51;99937.69;;;11.17;59.65
60258;BME280;46115;44.484;11.314;2023-12-20T12:15:53;99961.06;;;11.53;58.06
60258;BME280;46115;44.484;11.314;2023-12-20T12:20:01;99959.19;;;11.55;58.99
60258;BME280;46115;44.484;11.314;2023-12-20T12:24:08;99944.59;;;11.34;59.80
60258;BME280;46115;44.484;11.314;2023-12-20T12:28:10;99944.22;;;11.26;59.85
60258;BME280;46115;44.484;11.314;2023-12-20T12:32:13;99935.66;;;11.51;59.01
60258;BME280;46115;44.484;11.314;2023-12-20T12:36:17;99929.59;;;11.49;59.91
60258;BME280;46115;44.484;11.314;2023-12-20T12:40:20;99921.38;;;11.09;61.59
60258;BME280;46115;44.484;11.314;2023-12-20T12:44:22;99912.94;;;11.61;61.13
60258;BME280;46115;44.484;11.314;2023-12-20T12:48:25;99915.00;;;11.70;60.60
60258;BME280;46115;44.484;11.314;2023-12-20T12:52:28;99916.91;;;11.68;59.42
60258;BME280;46115;44.484;11.314;2023-12-20T12:56:32;99907.72;;;11.74;59.56
60258;BME280;46115;44.484;11.314;2023-12-20T13:00:36;99899.88;;;11.44;59.79
60258;BME280;46115;44.484;11.314;2023-12-20T13:04:38;99903.59;;;11.55;59.80
60258;BME280;46115;44.484;11.314;2023-12-20T13:08:40;99904.97;;;11.75;60.31
60258;BME280;46115;44.484;11.314;2023-12-20T13:12:44;99895.66;;;11.55;60.63
60258;BME280;46115;44.484;11.314;2023-12-20T13:16:46;99893.75;;;11.43;61.51
60258;BME280;46115;44.484;11.314;2023-12-20T13:20:48;99896.97;;;11.34;62.14
60258;BME280;46115;44.484;11.314;2023-12-20T13:24:50;99893.66;;;11.31;62.63
60258;BME280;46115;44.484;11.314;2023-12-20T13:28:54;99899.56;;;10.91;63.71
60258;BME280;46115;44.484;11.314;2023-12-20T13:32:56;99893.09;;;11.40;61.67
60258;BME280;46115;44.484;11.314;2023-12-20T13:36:58;99882.50;;;11.40;62.57
60258;BME280;46115;44.484;11.314;2023-12-20T13:41:01;99885.00;;;10.99;62.77
60258;BME280;46115;44.484;11.314;2023-12-20T13:45:05;99891.47;;;11.23;62.77
60258;BME280;46115;44.484;11.314;2023-12-20T13:49:07;99912.69;;;11.07;61.92
60258;BME280;46115;44.484;11.314;2023-12-20T13:53:09;99912.56;;;10.80;62.99
60258;BME280;46115;44.484;11.314;2023-12-20T13:57:11;99912.75;;;10.61;63.19
60258;BME280;46115;44.484;11.314;2023-12-20T14:01:15;99910.66;;;10.37;63.48
60258;BME280;46115;44.484;11.314;2023-12-20T14:05:17;99913.06;;;11.01;61.66
60258;BME280;46115;44.484;11.314;2023-12-20T14:09:19;99926.00;;;10.91;61.68
60258;BME280;46115;44.484;11.314;2023-12-20T14:13:21;99903.06;;;11.06;60.91
60258;BME280;46115;44.484;11.314;2023-12-20T14:17:25;99909.28;;;10.61;62.62
60258;BME280;46115;44.484;11.314;2023-12-20T14:21:27;99918.84;;;10.48;62.63
60258;BME280;46115;44.484;11.314;2023-12-20T14:25:29;99920.16;;;10.71;61.89
60258;BME280;46115;44.484;11.314;2023-12-20T14:29:32;99918.03;;;10.77;62.40
60258;BME280;46115;44.484;11.314;2023-12-20T14:33:35;99914.53;;;10.77;62.20
60258;BME280;46115;44.484;11.314;2023-12-20T14:37:38;99908.50;;;10.59;62.50
60258;BME280;46115;44.484;11.314;2023-12-20T14:41:42;99918.69;;;10.51;63.29
60258;BME280;46115;44.484;11.314;2023-12-20T14:45:44;99914.41;;;10.48;63.64
60258;BME280;46115;44.484;11.314;2023-12-20T14:49:47;99925.50;;;10.85;62.52
60258;BME280;46115;44.484;11.314;2023-12-20T14:53:49;99920.41;;;10.82;62.21
60258;BME280;46115;44.484;11.314;2023-12-20T14:57:51;99918.03;;;9.67;66.09
60258;BME280;46115;44.484;11.314;2023-12-20T15:01:53;99921.69;;;10.45;64.56
60258;BME280;46115;44.484;11.314;2023-12-20T15:05:57;99926.38;;;10.70;62.90
60258;BME280;46115;44.484;11.314;2023-12-20T15:09:59;99934.22;;;10.71;63.19
60258;BME280;46115;44.484;11.314;2023-12-20T15:14:01;99943.00;;;10.72;63.93
60258;BME280;46115;44.484;11.314;2023-12-20T15:18:04;99943.56;;;10.47;64.63
60258;BME280;46115;44.484;11.314;2023-12-20T15:22:08;99940.66;;;10.20;64.92
60258;BME280;46115;44.484;11.314;2023-12-20T15:26:10;99934.53;;;10.35;65.35
60258;BME280;46115;44.484;11.314;2023-12-20T15:30:12;99933.63;;;10.20;65.82
60258;BME280;46115;44.484;11.314;2023-12-20T15:34:14;99936.41;;;10.49;64.19
60258;BME280;46115;44.484;11.314;2023-12-20T15:38:18;99949.19;;;10.09;65.85
60258;BME280;46115;44.484;11.314;2023-12-20T15:42:20;99949.63;;;10.33;64.95
60258;BME280;46115;44.484;11.314;2023-12-20T15:46:22;99946.00;;;10.02;65.06
60258;BME280;46115;44.484;11.314;2023-12-20T15:50:25;99951.13;;;9.57;67.71
60258;BME280;46115;44.484;11.314;2023-12-20T23:06:09;100108.47;;;5.67;84.22
60258;BME280;46115;44.484;11.314;2023-12-20T23:10:12;100103.56;;;5.58;84.06
60258;BME280;46115;44.484;11.314;2023-12-20T23:14:15;100096.34;;;5.89;83.06
60258;BME280;46115;44.484;11.314;2023-12-20T23:18:17;100102.31;;;5.94;83.26
60258;BME280;46115;44.484;11.314;2023-12-20T23:22:21;100098.31;;;5.58;83.96
60258;BME280;46115;44.484;11.314;2023-12-20T23:26:23;100095.41;;;5.41;85.49
60258;BME280;46115;44.484;11.314;2023-12-20T23:30:26;100072.34;;;5.25;86.42
60258;BME280;46115;44.484;11.314;2023-12-20T23:34:28;100079.13;;;5.31;86.45
60258;BME280;46115;44.484;11.314;2023-12-20T23:38:31;100067.47;;;5.40;85.97
60258;BME280;46115;44.484;11.314;2023-12-20T23:42:34;100058.25;;;5.53;85.42
60258;BME280;46115;44.484;11.314;2023-12-20T23:46:36;100067.16;;;5.74;84.86
60258;BME280;46115;44.484;11.314;2023-12-20T23:50:38;100070.34;;;5.58;84.02
60258;BME280;46115;44.484;11.314;2023-12-20T23:54:42;100078.50;;;5.49;85.59
60258;BME280;46115;44.484;11.314;2023-12-20T23:58:44;100081.97;;;5.50;85.23
